Terminal Aerodrome Forecast
Issued by NWS

Home | Current Version | Previous Version | Graphics & Text | Print | Product List | Glossary On
Versions: 1 2 3 4 5 6 7 8 9 10 11 12 13 14 15 16 17 18 19 20 21 22 23 24 25 26 27 28 29
000
FTUS43 KPAH 251734
TAFOWB
TAF
KOWB 251734Z 2518/2618 22008KT P6SM -SHRA BKN050
      TEMPO 2518/2522 3SM TSRA BKN025CB
     FM260000 20004KT P6SM BKN150
     FM261000 20004KT 6SM HZ BKN018
     FM261500 21010KT P6SM BKN035=

USA.gov is the U.S. government's official web portal to all federal, state and local government web resources and services.